createdAt,value
2022-12-05T00:01:31.380Z,4.90
2022-12-05T00:04:00.027Z,5.03
2022-12-05T00:06:28.918Z,4.72
2022-12-05T00:08:57.929Z,4.57
2022-12-05T00:11:27.577Z,4.13
2022-12-05T00:13:56.753Z,5.90
2022-12-05T00:16:25.827Z,4.90
2022-12-05T00:18:55.954Z,6.28
2022-12-05T00:21:27.302Z,6.88
2022-12-05T00:23:55.731Z,6.15
2022-12-05T00:26:23.623Z,5.20
2022-12-05T00:28:52.050Z,4.72
2022-12-05T00:31:21.325Z,5.13
2022-12-05T00:33:49.303Z,4.40
2022-12-05T00:36:25.049Z,5.28
2022-12-05T00:38:53.214Z,5.72
2022-12-05T00:41:25.664Z,5.82
2022-12-05T00:43:53.613Z,4.75
2022-12-05T00:46:23.356Z,4.60
2022-12-05T00:48:52.834Z,4.73
2022-12-05T00:51:22.949Z,4.45
2022-12-05T00:53:50.775Z,5.28
2022-12-05T00:56:22.832Z,5.32
2022-12-05T00:58:51.525Z,4.25
2022-12-05T01:01:27.457Z,5.40
2022-12-05T01:03:56.437Z,5.20
2022-12-05T01:06:25.246Z,5.38
2022-12-05T01:08:56.402Z,3.65
2022-12-05T01:11:24.371Z,4.90
2022-12-05T01:13:52.404Z,5.00
2022-12-05T01:16:39.079Z,5.65
2022-12-05T01:19:09.501Z,4.30
2022-12-05T01:21:37.148Z,4.63
2022-12-05T01:24:05.056Z,5.18
2022-12-05T01:26:32.665Z,5.85
2022-12-05T01:29:00.281Z,5.72
2022-12-05T01:31:31.298Z,4.93
2022-12-05T01:33:59.830Z,6.03
2022-12-05T01:36:28.742Z,4.40
2022-12-05T01:38:56.401Z,5.35
2022-12-05T01:41:26.148Z,3.97
2022-12-05T01:44:05.301Z,4.72
2022-12-05T01:46:37.668Z,5.57
2022-12-05T01:49:20.297Z,4.18
2022-12-05T01:51:50.128Z,5.32
2022-12-05T01:54:18.662Z,5.00
2022-12-05T01:56:51.207Z,5.00
2022-12-05T01:59:20.030Z,6.45
2022-12-05T02:01:47.791Z,4.38
2022-12-05T02:04:15.488Z,4.57
2022-12-05T02:06:43.098Z,5.18
2022-12-05T02:09:10.801Z,5.65
2022-12-05T02:11:51.635Z,6.13
2022-12-05T02:17:16.054Z,5.05
2022-12-05T02:19:44.087Z,4.03
2022-12-05T02:22:24.007Z,4.65
2022-12-05T02:25:22.918Z,4.25
2022-12-05T02:28:28.262Z,4.80
2022-12-05T02:31:17.522Z,4.55
2022-12-05T02:33:50.826Z,5.18
2022-12-05T02:36:23.929Z,5.88
2022-12-05T02:38:59.973Z,4.93
2022-12-05T02:41:40.309Z,4.78
2022-12-05T02:44:11.025Z,5.05
2022-12-05T02:46:39.252Z,5.72
2022-12-05T02:49:11.892Z,4.80
2022-12-05T02:51:44.683Z,4.57
2022-12-05T02:54:17.241Z,5.13
2022-12-05T02:56:45.090Z,4.70
2022-12-05T02:59:12.778Z,5.05
2022-12-05T03:01:40.359Z,4.70
2022-12-05T03:04:08.049Z,5.38
2022-12-05T03:06:58.260Z,5.53
2022-12-05T03:09:39.862Z,4.57
2022-12-05T03:12:27.149Z,5.28
2022-12-05T03:15:11.174Z,5.35
2022-12-05T03:17:43.673Z,5.38
2022-12-05T03:20:14.416Z,5.45
2022-12-05T03:22:50.968Z,5.78
2022-12-05T03:25:18.545Z,4.70
2022-12-05T03:27:59.281Z,4.97
2022-12-05T03:30:28.703Z,4.88
2022-12-05T03:33:16.068Z,4.85
2022-12-05T03:35:47.262Z,4.88
2022-12-05T03:38:26.834Z,4.90
2022-12-05T03:41:06.301Z,5.30
2022-12-05T03:43:46.088Z,4.18
2022-12-05T03:46:19.148Z,4.68
2022-12-05T03:48:52.742Z,5.55
2022-12-05T03:51:20.715Z,4.57
2022-12-05T03:53:53.698Z,4.43
2022-12-05T03:56:27.722Z,6.15
2022-12-05T03:59:33.367Z,5.40
2022-12-05T04:02:02.063Z,4.90
2022-12-05T04:04:34.057Z,4.72
2022-12-05T04:07:02.642Z,5.18
2022-12-05T04:10:06.557Z,5.63
2022-12-05T04:12:34.538Z,4.57
2022-12-05T04:15:08.655Z,5.10
2022-12-05T04:17:53.433Z,4.90
2022-12-05T04:20:56.464Z,5.00
2022-12-05T04:23:24.690Z,4.72
2022-12-05T04:26:02.646Z,5.03
2022-12-05T04:28:49.686Z,4.30
2022-12-05T04:31:25.847Z,5.28
2022-12-05T04:33:59.916Z,5.03
2022-12-05T04:37:06.763Z,5.15
2022-12-05T04:39:55.139Z,4.10
2022-12-05T04:42:26.021Z,4.28
2022-12-05T04:44:54.572Z,5.72
2022-12-05T04:47:24.329Z,5.20
2022-12-05T04:49:53.955Z,4.73
2022-12-05T04:52:21.751Z,5.13
2022-12-05T04:55:01.229Z,5.72
2022-12-05T04:57:50.500Z,6.43
2022-12-05T05:00:18.350Z,6.65
2022-12-05T05:03:19.310Z,6.13
2022-12-05T05:05:51.106Z,5.68
2022-12-05T05:08:24.032Z,6.22
2022-12-05T05:10:54.639Z,7.80
2022-12-05T05:13:22.366Z,6.50
2022-12-05T05:15:50.291Z,6.85
2022-12-05T05:18:18.031Z,6.32
2022-12-05T05:20:45.625Z,5.97
2022-12-05T05:23:13.846Z,5.68
2022-12-05T05:25:41.518Z,4.53
2022-12-05T05:28:09.219Z,4.75
2022-12-05T05:30:36.788Z,5.43
2022-12-05T05:33:04.402Z,6.20
2022-12-05T05:35:32.022Z,5.95
2022-12-05T05:37:59.626Z,5.80
2022-12-05T05:40:27.203Z,4.88
2022-12-05T05:42:54.736Z,5.97
2022-12-05T05:45:22.326Z,3.92
2022-12-05T05:47:50.168Z,5.95
2022-12-05T05:50:21.492Z,5.10
2022-12-05T05:52:49.727Z,5.70
2022-12-05T05:55:17.412Z,4.60
2022-12-05T05:57:44.986Z,4.85
2022-12-05T06:00:13.434Z,4.65
2022-12-05T06:02:41.468Z,6.05
2022-12-05T06:05:09.868Z,4.50
2022-12-05T06:07:37.736Z,5.30
2022-12-05T06:10:06.148Z,7.53
2022-12-05T06:12:34.307Z,5.32
2022-12-05T06:15:01.973Z,5.22
2022-12-05T06:17:30.579Z,5.35
2022-12-05T06:19:58.741Z,5.38
2022-12-05T06:22:26.432Z,5.05
2022-12-05T06:24:54.726Z,5.57
2022-12-05T06:27:22.517Z,5.53
2022-12-05T06:29:50.564Z,4.35
2022-12-05T06:32:18.226Z,5.55
2022-12-05T06:34:45.778Z,3.95
2022-12-05T06:37:13.398Z,5.85
2022-12-05T06:39:41.371Z,5.00
2022-12-05T06:42:08.983Z,5.78
2022-12-05T06:44:36.893Z,5.63
2022-12-05T06:47:04.626Z,4.82
2022-12-05T06:49:37.666Z,4.90
2022-12-05T06:52:05.674Z,4.78
2022-12-05T06:54:33.334Z,5.40
2022-12-05T06:57:00.896Z,4.15
2022-12-05T06:59:28.590Z,4.38
2022-12-05T07:01:56.206Z,5.72
2022-12-05T07:04:24.698Z,4.40
2022-12-05T07:06:53.860Z,4.72
2022-12-05T07:09:23.638Z,4.30
2022-12-05T07:11:51.568Z,5.30
2022-12-05T07:14:45.717Z,4.63
2022-12-05T07:17:06.842Z,5.35
2022-12-05T07:19:34.461Z,5.15
2022-12-05T07:22:02.056Z,5.57
2022-12-05T07:24:29.802Z,5.15
2022-12-05T07:26:57.391Z,4.15
2022-12-05T07:29:24.958Z,3.70
2022-12-05T07:31:54.284Z,5.53
2022-12-05T07:34:21.874Z,4.88
2022-12-05T07:36:49.570Z,4.53
2022-12-05T07:39:17.368Z,4.55
2022-12-05T07:41:45.048Z,5.35
2022-12-05T07:44:16.915Z,5.88
2022-12-05T07:46:45.280Z,4.75
2022-12-05T07:49:13.003Z,6.50
2022-12-05T07:51:41.402Z,6.05
2022-12-05T07:54:09.072Z,4.95
2022-12-05T07:56:36.680Z,5.57
2022-12-05T07:59:04.188Z,4.68
2022-12-05T08:01:31.868Z,5.07
2022-12-05T08:03:59.766Z,4.97
2022-12-05T08:06:29.037Z,6.30
2022-12-05T08:08:56.938Z,5.78
2022-12-05T08:11:32.632Z,4.10
2022-12-05T08:14:02.002Z,4.60
2022-12-05T08:16:30.487Z,6.63
2022-12-05T08:18:59.775Z,6.13
2022-12-05T08:21:27.471Z,4.80
2022-12-05T08:23:55.228Z,5.93
2022-12-05T08:26:27.573Z,4.35
2022-12-05T08:29:11.545Z,5.00
2022-12-05T08:31:44.813Z,4.85
2022-12-05T08:34:13.036Z,4.60
2022-12-05T08:36:40.799Z,3.83
2022-12-05T08:39:09.899Z,4.53
2022-12-05T08:41:37.499Z,4.53
2022-12-05T08:44:05.873Z,4.82
2022-12-05T08:46:34.768Z,4.10
2022-12-05T08:49:03.510Z,4.68
2022-12-05T08:51:31.107Z,4.20
2022-12-05T08:53:58.927Z,4.28
2022-12-05T08:56:27.464Z,4.97
2022-12-05T08:59:02.927Z,4.55
2022-12-05T09:01:33.481Z,4.35
2022-12-05T09:04:01.372Z,4.85
2022-12-05T09:06:29.984Z,4.15
2022-12-05T09:09:02.635Z,5.22
2022-12-05T09:11:35.058Z,5.05
2022-12-05T09:14:02.708Z,4.70
2022-12-05T09:16:37.608Z,5.88
2022-12-05T09:19:33.186Z,4.60
2022-12-05T09:22:01.776Z,4.05
2022-12-05T09:24:29.636Z,3.85
2022-12-05T09:26:57.351Z,4.43
2022-12-05T09:29:25.975Z,5.22
2022-12-05T09:31:55.835Z,4.93
2022-12-05T09:34:26.162Z,4.60
2022-12-05T09:37:10.342Z,4.22
2022-12-05T09:39:44.295Z,5.32
2022-12-05T09:42:34.753Z,5.13
2022-12-05T09:45:08.514Z,5.77
2022-12-05T09:47:43.365Z,4.80
2022-12-05T09:50:34.995Z,3.80
2022-12-05T09:53:14.148Z,3.92
2022-12-05T09:56:02.316Z,3.63
2022-12-05T09:58:49.378Z,4.80
2022-12-05T10:01:26.659Z,6.20
2022-12-05T10:04:17.699Z,5.82
2022-12-05T10:10:11.325Z,4.85
2022-12-05T10:12:59.294Z,4.13
2022-12-05T10:15:45.883Z,4.40
2022-12-05T10:18:40.968Z,4.63
2022-12-05T10:21:08.432Z,5.20
2022-12-05T10:24:03.164Z,4.57
2022-12-05T10:26:38.933Z,3.65
2022-12-05T10:29:18.678Z,4.75
2022-12-05T10:31:47.580Z,4.28
2022-12-05T10:34:19.045Z,4.72
2022-12-05T10:37:17.620Z,3.78
2022-12-05T10:39:46.372Z,4.00
2022-12-05T10:42:16.980Z,4.60
2022-12-05T10:44:44.902Z,6.63
2022-12-05T10:47:12.688Z,5.97
2022-12-05T10:49:40.428Z,4.43
2022-12-05T10:52:08.047Z,4.57
2022-12-05T10:54:40.368Z,4.13
2022-12-05T10:57:24.565Z,4.75
2022-12-05T10:59:52.416Z,4.97
2022-12-05T11:02:27.847Z,6.22
2022-12-05T11:04:55.688Z,6.28
2022-12-05T11:07:34.338Z,5.75
2022-12-05T11:10:04.244Z,6.68
2022-12-05T11:12:36.138Z,6.60
2022-12-05T11:17:38.795Z,5.40
2022-12-05T11:20:18.498Z,6.03
2022-12-05T11:22:50.658Z,6.43
2022-12-05T11:25:36.793Z,4.53
2022-12-05T11:28:29.829Z,5.88
2022-12-05T11:31:16.937Z,6.18
2022-12-05T11:33:44.544Z,6.05
2022-12-05T11:36:20.147Z,7.00
2022-12-05T11:38:47.797Z,5.65
2022-12-05T11:41:43.487Z,6.40
2022-12-05T11:44:29.710Z,6.20
2022-12-05T11:47:21.413Z,5.45
2022-12-05T11:50:20.105Z,8.18
2022-12-05T11:53:24.573Z,5.60
2022-12-05T11:55:52.941Z,7.75
2022-12-05T11:58:32.551Z,7.30
2022-12-05T12:01:10.696Z,8.35
2022-12-05T12:04:16.443Z,6.43
2022-12-05T12:06:47.387Z,6.05
2022-12-05T12:09:22.386Z,9.60
2022-12-05T12:11:54.794Z,9.45
2022-12-05T12:14:35.560Z,9.63
2022-12-05T12:17:21.292Z,7.57
2022-12-05T12:19:52.453Z,8.70
2022-12-05T12:25:06.709Z,7.38
2022-12-05T12:27:52.106Z,6.97
2022-12-05T12:30:27.601Z,7.50
2022-12-05T12:33:05.837Z,7.75
2022-12-05T12:36:11.464Z,8.07
2022-12-05T12:38:51.748Z,8.82
2022-12-05T12:41:55.863Z,6.18
2022-12-05T12:44:41.853Z,10.30
2022-12-05T12:47:16.516Z,7.50
2022-12-05T12:49:48.956Z,8.35
2022-12-05T12:52:19.305Z,8.55
2022-12-05T12:55:21.473Z,9.70
2022-12-05T12:58:27.247Z,8.68
2022-12-05T13:01:15.902Z,8.55
2022-12-05T13:04:02.715Z,6.93
2022-12-05T13:06:50.106Z,7.82
2022-12-05T13:09:37.211Z,7.18
2022-12-05T13:12:11.926Z,7.38
2022-12-05T13:14:40.636Z,8.25
2022-12-05T13:17:08.622Z,7.68
2022-12-05T13:19:42.994Z,8.35
2022-12-05T13:22:10.634Z,7.15
2022-12-05T13:24:38.336Z,8.07
2022-12-05T13:27:07.800Z,8.82
2022-12-05T13:29:56.870Z,6.88
2022-12-05T13:32:25.956Z,10.32
2022-12-05T13:34:53.460Z,10.15
2022-12-05T13:37:50.239Z,11.38
2022-12-05T13:40:53.325Z,10.85
2022-12-05T13:43:24.061Z,11.70
2022-12-05T13:46:00.661Z,11.85
2022-12-05T13:48:28.330Z,10.57
2022-12-05T13:51:21.668Z,9.98
2022-12-05T13:53:50.570Z,10.10
2022-12-05T13:56:18.241Z,9.35
2022-12-05T13:58:57.063Z,7.93
2022-12-05T14:01:28.117Z,9.63
2022-12-05T14:04:00.684Z,7.95
2022-12-05T14:06:40.464Z,6.28
2022-12-05T14:09:17.168Z,6.70
2022-12-05T14:12:14.043Z,6.90
2022-12-05T14:15:04.115Z,7.47
2022-12-05T14:17:42.447Z,7.88
2022-12-05T14:20:36.382Z,7.43
2022-12-05T14:23:16.161Z,7.75
2022-12-05T14:25:56.067Z,8.13
2022-12-05T14:28:31.351Z,10.55
2022-12-05T14:31:01.823Z,10.35
2022-12-05T14:33:29.624Z,9.20
2022-12-05T14:35:57.549Z,8.05
2022-12-05T14:38:29.297Z,7.45
2022-12-05T14:41:15.047Z,6.25
2022-12-05T14:43:42.814Z,7.05
2022-12-05T14:46:21.175Z,7.13
2022-12-05T14:48:49.444Z,7.88
2022-12-05T14:51:35.374Z,11.57
2022-12-05T14:54:23.274Z,14.40
2022-12-05T14:56:52.793Z,9.23
2022-12-05T14:59:34.725Z,8.35
2022-12-05T15:02:03.278Z,6.95
2022-12-05T15:04:48.129Z,5.88
2022-12-05T15:07:20.130Z,5.93
2022-12-05T15:10:07.576Z,5.45
2022-12-05T15:12:44.245Z,5.13
2022-12-05T15:15:20.127Z,4.68
2022-12-05T15:17:51.862Z,5.95
2022-12-05T15:20:24.536Z,5.35
2022-12-05T15:22:52.174Z,5.25
2022-12-05T15:25:30.240Z,4.93
2022-12-05T15:28:05.797Z,4.75
2022-12-05T15:30:35.380Z,4.63
2022-12-05T15:33:03.196Z,5.20
2022-12-05T15:35:32.172Z,5.15
2022-12-05T15:38:09.495Z,5.10
2022-12-05T15:40:37.783Z,4.70
2022-12-05T15:43:24.158Z,4.85
2022-12-05T15:45:52.059Z,4.05
2022-12-05T15:48:22.878Z,4.82
2022-12-05T15:50:51.585Z,4.45
2022-12-05T15:53:40.384Z,5.55
2022-12-05T15:56:15.014Z,5.03
2022-12-05T15:58:45.018Z,4.75
2022-12-05T16:01:19.412Z,4.78
2022-12-05T16:03:50.116Z,5.30
2022-12-05T16:06:38.890Z,6.25
2022-12-05T16:09:11.565Z,5.47
2022-12-05T16:11:39.835Z,5.68
2022-12-05T16:14:08.162Z,4.97
2022-12-05T16:16:37.374Z,5.78
2022-12-05T16:19:18.240Z,5.82
2022-12-05T16:21:47.625Z,5.32
2022-12-05T16:24:19.002Z,5.38
2022-12-05T16:27:16.968Z,5.65
2022-12-05T16:29:45.352Z,3.97
2022-12-05T16:32:26.190Z,4.85
2022-12-05T16:34:53.877Z,5.55
2022-12-05T16:37:29.585Z,5.22
2022-12-05T16:39:57.595Z,4.93
2022-12-05T16:42:26.901Z,4.90
2022-12-05T16:45:02.355Z,5.53
2022-12-05T16:47:42.411Z,4.68
2022-12-05T16:50:35.098Z,4.07
2022-12-05T16:53:09.767Z,4.65
2022-12-05T16:55:37.908Z,4.90
2022-12-05T16:58:05.725Z,5.78
2022-12-05T17:00:34.273Z,7.00
2022-12-05T20:00:10.190Z,7.30
2022-12-05T20:02:45.788Z,7.25
2022-12-05T20:05:13.746Z,7.47
2022-12-05T20:07:41.352Z,7.82
2022-12-05T20:10:09.606Z,5.97
2022-12-05T20:12:37.238Z,6.63
2022-12-05T20:15:05.157Z,6.75
2022-12-05T20:17:32.821Z,6.75
2022-12-05T20:20:00.713Z,8.30
2022-12-05T20:22:30.998Z,7.20
2022-12-05T20:24:58.612Z,7.88
2022-12-05T20:27:26.197Z,5.65
2022-12-05T20:29:54.130Z,8.57
2022-12-05T20:32:21.871Z,8.15
2022-12-05T20:34:49.685Z,9.27
2022-12-05T20:37:17.263Z,9.15
2022-12-05T20:39:44.917Z,7.93
2022-12-05T20:42:12.564Z,9.75
2022-12-05T20:44:40.537Z,9.50
2022-12-05T20:47:08.029Z,9.27
2022-12-05T20:49:35.581Z,8.25
2022-12-05T20:52:03.093Z,9.93
2022-12-05T20:54:30.888Z,8.73
2022-12-05T20:56:59.096Z,8.75
2022-12-05T20:59:26.865Z,8.13
2022-12-05T21:01:54.700Z,9.13
2022-12-05T21:04:22.517Z,8.68
2022-12-05T21:06:50.053Z,9.18
2022-12-05T21:09:27.553Z,7.88
2022-12-05T21:11:55.278Z,8.15
2022-12-05T21:14:23.823Z,8.10
2022-12-05T21:16:53.315Z,8.95
2022-12-05T21:19:22.742Z,9.45
2022-12-05T21:21:50.634Z,7.68
2022-12-05T21:24:18.194Z,9.38
2022-12-05T21:26:46.847Z,8.73
2022-12-05T21:29:14.628Z,9.20
2022-12-05T21:31:42.703Z,11.63
2022-12-05T21:34:15.453Z,10.82
2022-12-05T21:36:43.130Z,12.02
2022-12-05T21:39:12.230Z,11.90
2022-12-05T21:41:39.981Z,12.52
2022-12-05T21:44:07.681Z,12.40
2022-12-05T21:46:35.322Z,13.00
2022-12-05T21:49:02.939Z,11.77
2022-12-05T21:51:31.159Z,10.45
2022-12-05T21:53:58.777Z,11.23
2022-12-05T21:56:26.458Z,9.05
2022-12-05T21:58:54.059Z,8.95
2022-12-05T22:01:23.692Z,9.02
2022-12-05T22:03:56.152Z,10.02
2022-12-05T22:06:23.756Z,8.18
2022-12-05T22:08:51.423Z,8.43
2022-12-05T22:11:22.633Z,9.35
2022-12-05T22:13:50.374Z,8.57
2022-12-05T22:16:18.233Z,9.43
2022-12-05T22:18:46.516Z,8.57
2022-12-05T22:21:16.036Z,8.68
2022-12-05T22:23:43.706Z,8.73
2022-12-05T22:26:17.267Z,7.85
2022-12-05T22:28:44.931Z,8.82
2022-12-05T22:31:14.434Z,7.25
2022-12-05T22:33:42.072Z,8.32
2022-12-05T22:36:11.246Z,7.95
2022-12-05T22:38:40.017Z,10.18
2022-12-05T22:41:09.238Z,8.73
2022-12-05T22:43:37.871Z,9.57
2022-12-05T22:46:06.830Z,9.82
2022-12-05T22:48:34.708Z,10.60
2022-12-05T22:51:02.661Z,9.75
2022-12-05T22:53:30.891Z,8.48
2022-12-05T22:56:17.203Z,9.05
2022-12-05T22:58:45.158Z,10.20
2022-12-05T23:01:23.572Z,12.05
2022-12-05T23:03:55.498Z,11.50
2022-12-05T23:06:23.148Z,14.10
2022-12-05T23:08:50.728Z,15.25
2022-12-05T23:11:19.101Z,12.18
2022-12-05T23:13:48.052Z,12.10
2022-12-05T23:16:23.632Z,13.88
2022-12-05T23:18:53.637Z,14.93
2022-12-05T23:21:35.676Z,13.48
2022-12-05T23:24:05.648Z,9.93
2022-12-05T23:26:35.756Z,10.23
2022-12-05T23:29:03.510Z,9.82
2022-12-05T23:31:31.665Z,8.65
2022-12-05T23:34:03.233Z,10.40
2022-12-05T23:36:32.463Z,9.23
2022-12-05T23:39:00.218Z,13.35
2022-12-05T23:41:28.000Z,11.10
2022-12-05T23:43:56.918Z,10.95
2022-12-05T23:46:26.242Z,10.93
2022-12-05T23:48:55.291Z,10.13
2022-12-05T23:51:28.183Z,14.65
2022-12-05T23:54:00.559Z,12.13
2022-12-05T23:56:30.476Z,14.10
2022-12-05T23:58:58.397Z,13.10
